< Typhoon 198018 1980 Season Typhoon 198020 >
Typhoon 198019 (WYNNE)
General InformationTrack Information on Google MapsDetailed Wind Information || Disaster Info.ResourceGoogle EarthGE AnimationAtom FeedGeoJSON
Detalied Best Track (Time Zone = UTC)
Year Month Day Hour Lat. Long. Pressure (hPa) Wind (kt) Class Image Chart
1980 10 3 06 5.3 155.0 1006 0 2 -- Chart
1980 10 3 12 5.4 154.0 1004 0 2 -- Chart
1980 10 3 18 5.6 153.0 990 45 3 -- Chart
1980 10 4 00 5.7 152.2 985 50 4 -- Chart
1980 10 4 06 6.1 151.3 980 55 4 -- Chart
1980 10 4 12 6.7 150.5 990 50 4 -- Chart
1980 10 4 18 7.3 149.7 994 50 4 -- Chart
1980 10 5 00 8.0 149.4 996 45 3 -- Chart
1980 10 5 06 8.9 149.1 996 45 3 -- Chart
1980 10 5 12 9.1 147.9 998 45 3 -- Chart
1980 10 5 18 10.3 146.7 1000 40 3 -- Chart
1980 10 6 00 11.6 146.6 1000 45 3 -- Chart
1980 10 6 06 12.8 146.3 996 50 4 -- Chart
1980 10 6 12 13.8 146.0 1000 50 4 -- Chart
1980 10 6 18 14.8 145.3 998 45 3 -- Chart
1980 10 7 00 15.3 144.7 994 45 3 -- Chart
1980 10 7 06 15.8 144.1 990 45 3 -- Chart
1980 10 7 12 16.3 143.6 985 45 3 -- Chart
1980 10 7 18 16.8 142.9 980 55 4 -- Chart
1980 10 8 00 17.0 142.0 975 55 4 -- Chart
1980 10 8 06 17.4 141.0 965 65 5 -- Chart
1980 10 8 12 17.8 140.0 950 75 5 -- Chart
1980 10 8 18 18.5 138.9 930 85 5 -- Chart
1980 10 9 00 18.7 138.0 890 110 5 -- Chart
1980 10 9 06 19.1 137.0 890 120 5 -- Chart
1980 10 9 12 19.5 136.1 900 120 5 -- Chart
1980 10 9 18 20.1 134.9 900 110 5 -- Chart
1980 10 10 00 20.5 133.6 910 110 5 -- Chart
1980 10 10 06 20.9 132.0 910 110 5 -- Chart
1980 10 10 12 21.6 130.9 905 110 5 -- Chart
1980 10 10 18 22.2 129.7 910 110 5 -- Chart
1980 10 11 00 22.7 128.9 920 110 5 -- Chart
1980 10 11 06 23.4 127.9 920 100 5 -- Chart
1980 10 11 12 23.7 127.2 915 100 5 -- Chart
1980 10 11 18 24.4 126.4 915 100 5 -- Chart
1980 10 12 00 24.7 126.0 925 100 5 -- Chart
1980 10 12 06 25.3 125.8 925 100 5 -- Chart
1980 10 12 12 26.1 125.7 925 100 5 -- Chart
1980 10 12 18 26.9 125.9 930 90 5 -- Chart
1980 10 13 00 27.8 126.2 940 90 5 -- Chart
1980 10 13 06 28.8 127.2 945 90 5 -- Chart
1980 10 13 12 29.8 128.6 950 90 5 -- Chart
1980 10 13 18 30.5 130.7 950 90 5 -- Chart
1980 10 14 00 31.4 133.0 950 90 5 -- Chart
1980 10 14 06 32.5 136.2 960 80 5 -- Chart
1980 10 14 12 33.6 140.2 965 75 5 -- Chart
1980 10 14 18 35.0 144.5 975 60 4 -- Chart
1980 10 15 00 36.0 149.0 984 0 6 -- Chart
1980 10 15 06 36.5 155.0 992 0 6 -- Chart
1980 10 15 12 38.0 161.0 996 0 6 -- Chart
1980 10 15 18 39.0 170.0 1000 0 6 -- Chart
Japan Meteorological Agency Best Track Data | Correction Date : 1992-10-21
< Typhoon 198018 1980 Season Typhoon 198020 >

Help